createdAt,value
2018-02-17T00:01:56.218Z,10.25
2018-02-17T00:04:24.535Z,16.58
2018-02-17T00:06:52.883Z,19.60
2018-02-17T00:09:21.202Z,16.77
2018-02-17T00:11:49.546Z,13.43
2018-02-17T00:14:17.893Z,13.20
2018-02-17T00:16:46.302Z,15.23
2018-02-17T00:19:14.646Z,12.27
2018-02-17T00:21:43.059Z,18.83
2018-02-17T00:24:11.403Z,10.90
2018-02-17T00:26:39.818Z,12.00
2018-02-17T00:29:08.162Z,44.33
2018-02-17T00:31:36.573Z,14.23
2018-02-17T00:34:04.914Z,14.70
2018-02-17T00:36:33.334Z,15.80
2018-02-17T00:39:01.714Z,14.48
2018-02-17T00:41:30.134Z,22.83
2018-02-17T00:43:58.574Z,19.62
2018-02-17T00:46:26.894Z,14.63
2018-02-17T00:48:55.233Z,16.67
2018-02-17T00:51:23.658Z,16.70
2018-02-17T00:53:52.086Z,20.25
2018-02-17T00:56:20.405Z,20.88
2018-02-17T00:58:48.747Z,15.82
2018-02-17T01:01:17.070Z,14.95
2018-02-17T01:03:45.410Z,20.17
2018-02-17T01:06:13.730Z,11.27
2018-02-17T01:08:42.083Z,12.35
2018-02-17T01:11:10.402Z,19.23
2018-02-17T01:13:38.798Z,24.48
2018-02-17T01:16:07.190Z,19.45
2018-02-17T01:18:35.534Z,28.98
2018-02-17T01:21:03.942Z,16.62
2018-02-17T01:23:32.282Z,36.17
2018-02-17T01:26:00.601Z,25.02
2018-02-17T01:28:28.975Z,13.52
2018-02-17T01:30:57.293Z,13.10
2018-02-17T01:33:25.726Z,15.60
2018-02-17T01:35:54.054Z,13.90
2018-02-17T01:38:22.494Z,16.62
2018-02-17T01:40:50.820Z,16.70
2018-02-17T01:43:19.243Z,13.13
2018-02-17T01:45:47.931Z,11.90
2018-02-17T01:48:16.258Z,19.20
2018-02-17T01:50:44.583Z,17.65
2018-02-17T01:53:12.921Z,18.58
2018-02-17T01:55:41.241Z,16.87
2018-02-17T01:58:09.588Z,15.82
2018-02-17T02:00:37.907Z,19.65
2018-02-17T02:03:06.266Z,13.50
2018-02-17T02:05:34.642Z,11.70
2018-02-17T02:08:02.982Z,19.67
2018-02-17T02:10:31.403Z,12.60
2018-02-17T02:12:59.750Z,24.52
2018-02-17T02:15:28.154Z,16.90
2018-02-17T02:17:56.474Z,22.85
2018-02-17T02:20:24.814Z,15.85
2018-02-17T02:22:53.135Z,19.62
2018-02-17T02:25:21.473Z,17.42
2018-02-17T02:27:49.786Z,21.37
2018-02-17T02:30:18.214Z,19.42
2018-02-17T02:32:46.605Z,14.85
2018-02-17T02:35:14.970Z,23.27
2018-02-17T02:37:43.286Z,21.12
2018-02-17T02:40:11.725Z,15.70
2018-02-17T02:42:40.047Z,17.98
2018-02-17T02:45:08.391Z,20.42
2018-02-17T02:47:36.713Z,33.58
2018-02-17T02:50:05.129Z,20.17
2018-02-17T02:52:33.455Z,13.65
2018-02-17T02:55:01.798Z,23.90
2018-02-17T02:57:30.118Z,15.32
2018-02-17T02:59:58.543Z,27.90
2018-02-17T03:02:26.862Z,16.40
2018-02-17T03:04:55.294Z,21.48
2018-02-17T03:07:23.614Z,19.67
2018-02-17T03:09:52.045Z,13.57
2018-02-17T03:12:20.367Z,15.60
2018-02-17T03:14:48.798Z,24.55
2018-02-17T03:17:17.126Z,22.10
2018-02-17T03:19:45.466Z,18.00
2018-02-17T03:22:13.794Z,16.92
2018-02-17T03:24:42.134Z,20.12
2018-02-17T03:27:10.453Z,22.40
2018-02-17T03:29:38.862Z,15.75
2018-02-17T03:32:07.242Z,31.08
2018-02-17T03:34:35.621Z,17.15
2018-02-17T03:37:03.943Z,16.52
2018-02-17T03:39:32.378Z,11.57
2018-02-17T03:42:00.749Z,29.27
2018-02-17T03:44:29.089Z,20.12
2018-02-17T03:46:57.501Z,22.73
2018-02-17T03:49:25.883Z,16.10
2018-02-17T03:51:54.193Z,17.90
2018-02-17T03:54:22.630Z,20.12
2018-02-17T03:56:51.010Z,26.92
2018-02-17T03:59:19.385Z,17.02
2018-02-17T04:01:47.802Z,15.88
2018-02-17T04:04:16.241Z,17.08
2018-02-17T04:06:44.562Z,17.60
2018-02-17T04:09:12.997Z,19.95
2018-02-17T04:11:41.310Z,24.42
2018-02-17T04:14:09.749Z,14.98
2018-02-17T04:16:38.065Z,21.90
2018-02-17T04:19:06.402Z,20.27
2018-02-17T04:21:34.782Z,18.27
2018-02-17T04:24:03.094Z,22.00
2018-02-17T04:26:31.533Z,21.65
2018-02-17T04:28:59.850Z,22.52
2018-02-17T04:31:28.284Z,15.25
2018-02-17T04:33:56.666Z,15.95
2018-02-17T04:36:25.038Z,20.55
2018-02-17T04:38:53.358Z,27.02
2018-02-17T04:41:31.604Z,18.23
2018-02-17T04:43:59.918Z,30.58
2018-02-17T04:46:31.082Z,17.85
2018-02-17T04:49:05.003Z,27.25
2018-02-17T04:51:39.061Z,16.40
2018-02-17T04:54:09.849Z,25.67
2018-02-17T04:56:41.117Z,38.55
2018-02-17T04:59:15.878Z,22.35
2018-02-17T05:04:54.438Z,15.30
2018-02-17T05:07:33.566Z,24.20
2018-02-17T05:10:01.914Z,24.65
2018-02-17T05:12:30.242Z,20.00
2018-02-17T05:15:04.098Z,24.42
2018-02-17T05:17:37.966Z,19.25
2018-02-17T05:20:11.879Z,25.98
2018-02-17T05:25:51.862Z,20.50
2018-02-17T05:28:36.863Z,19.80
2018-02-17T05:31:05.198Z,22.23
2018-02-17T05:36:39.299Z,28.67
2018-02-17T05:39:07.637Z,18.20
2018-02-17T05:41:55.681Z,15.55
2018-02-17T05:47:45.018Z,23.42
2018-02-17T05:50:13.360Z,18.58
2018-02-17T05:52:41.675Z,16.08
2018-02-17T05:55:10.011Z,18.70
2018-02-17T05:57:38.330Z,18.60
2018-02-17T06:00:06.653Z,19.95
2018-02-17T06:02:34.989Z,20.73
2018-02-17T06:05:03.316Z,18.27
2018-02-17T06:07:31.650Z,19.75
2018-02-17T06:09:59.968Z,23.90
2018-02-17T06:12:28.306Z,21.60
2018-02-17T06:14:56.622Z,16.08
2018-02-17T06:17:24.966Z,16.60
2018-02-17T06:19:53.279Z,21.23
2018-02-17T06:22:21.618Z,17.80
2018-02-17T06:24:49.943Z,30.62
2018-02-17T06:27:18.290Z,17.58
2018-02-17T06:29:46.618Z,16.37
2018-02-17T06:32:14.967Z,24.42
2018-02-17T06:34:43.283Z,20.12
2018-02-17T06:37:11.628Z,19.45
2018-02-17T06:39:39.949Z,23.70
2018-02-17T06:42:08.303Z,19.05
2018-02-17T06:44:36.632Z,13.27
2018-02-17T06:47:04.982Z,20.58
2018-02-17T06:49:33.318Z,18.87
2018-02-17T06:52:01.662Z,24.50
2018-02-17T06:54:29.990Z,28.58
2018-02-17T06:56:58.388Z,21.40
2018-02-17T06:59:26.676Z,24.40
2018-02-17T07:01:55.022Z,26.35
2018-02-17T07:04:23.353Z,24.80
2018-02-17T07:06:51.685Z,28.80
2018-02-17T07:09:20.010Z,28.60
2018-02-17T07:11:48.350Z,24.60
2018-02-17T07:14:16.673Z,29.63
2018-02-17T07:16:45.006Z,20.95
2018-02-17T07:19:13.321Z,21.95
2018-02-17T07:21:41.662Z,25.37
2018-02-17T07:24:09.985Z,27.37
2018-02-17T07:26:38.330Z,34.97
2018-02-17T07:29:06.653Z,23.70
2018-02-17T07:31:34.997Z,26.62
2018-02-17T07:34:03.313Z,27.08
2018-02-17T07:36:31.658Z,23.73
2018-02-17T07:38:59.983Z,29.67
2018-02-17T07:41:28.336Z,38.03
2018-02-17T07:43:56.653Z,34.67
2018-02-17T07:46:24.998Z,28.60
2018-02-17T07:48:53.321Z,33.70
2018-02-17T07:51:21.670Z,32.20
2018-02-17T07:53:49.994Z,27.87
2018-02-17T07:56:18.342Z,35.80
2018-02-17T07:58:46.674Z,35.92
2018-02-17T08:01:14.994Z,37.35
2018-02-17T08:03:43.341Z,48.47
2018-02-17T08:06:11.665Z,36.13
2018-02-17T08:08:40.018Z,31.02
2018-02-17T08:11:08.341Z,34.33
2018-02-17T08:13:36.691Z,43.50
2018-02-17T08:16:05.009Z,42.38
2018-02-17T08:18:33.354Z,40.22
2018-02-17T08:21:01.683Z,46.03
2018-02-17T08:23:30.027Z,34.58
2018-02-17T08:25:58.356Z,42.38
2018-02-17T08:28:26.701Z,35.17
2018-02-17T08:30:55.034Z,33.30
2018-02-17T08:33:23.381Z,39.00
2018-02-17T08:35:51.722Z,41.43
2018-02-17T08:38:20.074Z,45.53
2018-02-17T08:40:48.403Z,49.20
2018-02-17T08:43:16.755Z,54.23
2018-02-17T08:45:45.087Z,56.00
2018-02-17T08:48:13.436Z,46.10
2018-02-17T08:50:41.758Z,52.10
2018-02-17T08:53:10.110Z,52.38
2018-02-17T08:55:38.437Z,49.43
2018-02-17T08:58:06.789Z,53.17
2018-02-17T09:00:35.132Z,49.60
2018-02-17T09:03:03.462Z,56.93
2018-02-17T09:05:31.795Z,71.07
2018-02-17T09:08:00.150Z,59.73
2018-02-17T09:10:40.434Z,67.67
2018-02-17T09:13:08.787Z,60.70
2018-02-17T09:15:37.114Z,65.57
2018-02-17T09:18:05.469Z,58.87
2018-02-17T09:20:33.798Z,78.62
2018-02-17T09:23:02.260Z,71.27
2018-02-17T09:25:30.589Z,64.97
2018-02-17T09:27:59.105Z,57.93
2018-02-17T09:30:27.430Z,59.57
2018-02-17T09:32:55.785Z,58.00
2018-02-17T09:35:24.111Z,48.60
2018-02-17T09:37:52.569Z,58.95
2018-02-17T09:40:20.889Z,69.80
2018-02-17T09:42:49.262Z,51.00
2018-02-17T09:45:17.593Z,56.33
2018-02-17T09:47:46.017Z,56.93
2018-02-17T09:50:14.355Z,63.92
2018-02-17T09:52:42.705Z,50.53
2018-02-17T09:55:11.034Z,61.80
2018-02-17T09:57:39.382Z,49.67
2018-02-17T10:00:07.810Z,58.60
2018-02-17T10:02:36.154Z,50.63
2018-02-17T10:05:04.484Z,48.83
2018-02-17T10:07:32.835Z,51.97
2018-02-17T10:10:01.329Z,63.03
2018-02-17T10:12:29.691Z,59.43
2018-02-17T10:14:58.046Z,65.53
2018-02-17T10:17:26.426Z,46.57
2018-02-17T10:19:54.782Z,57.73
2018-02-17T10:22:23.953Z,53.90
2018-02-17T10:24:52.399Z,53.30
2018-02-17T10:27:20.779Z,50.10
2018-02-17T10:29:49.137Z,50.25
2018-02-17T10:32:17.475Z,49.50
2018-02-17T10:34:45.830Z,58.03
2018-02-17T10:37:14.162Z,52.20
2018-02-17T10:39:42.562Z,40.40
2018-02-17T10:42:10.890Z,45.87
2018-02-17T10:44:39.314Z,43.53
2018-02-17T10:47:07.639Z,68.33
2018-02-17T10:49:36.126Z,56.93
2018-02-17T10:52:04.550Z,53.23
2018-02-17T10:54:33.478Z,46.92
2018-02-17T10:57:02.087Z,41.33
2018-02-17T10:59:30.489Z,46.97
2018-02-17T11:01:58.927Z,50.13
2018-02-17T11:04:27.307Z,53.97
2018-02-17T11:06:55.630Z,45.97
2018-02-17T11:09:24.471Z,36.30
2018-02-17T11:11:52.794Z,62.47
2018-02-17T11:14:21.634Z,45.43
2018-02-17T11:16:50.322Z,44.53
2018-02-17T11:19:19.466Z,50.43
2018-02-17T11:21:47.861Z,45.28
2018-02-17T11:24:16.384Z,45.93
2018-02-17T11:26:44.941Z,61.73
2018-02-17T11:29:13.291Z,48.77
2018-02-17T11:31:41.618Z,46.42
2018-02-17T11:34:10.442Z,59.37
2018-02-17T11:36:38.828Z,112.65
2018-02-17T11:39:07.190Z,119.73
2018-02-17T11:41:36.542Z,52.72
2018-02-17T11:44:04.978Z,55.10
2018-02-17T11:46:33.322Z,55.07
2018-02-17T11:49:01.676Z,61.65
2018-02-17T11:51:30.289Z,54.27
2018-02-17T11:54:00.746Z,50.13
2018-02-17T11:56:29.075Z,49.47
2018-02-17T11:58:57.426Z,59.63
2018-02-17T12:01:25.762Z,48.93
2018-02-17T12:03:54.142Z,61.95
2018-02-17T12:06:23.409Z,52.70
2018-02-17T12:08:51.833Z,54.27
2018-02-17T12:11:20.194Z,55.53
2018-02-17T12:13:48.542Z,53.30
2018-02-17T12:16:16.895Z,59.13
2018-02-17T12:18:45.242Z,60.27
2018-02-17T12:21:13.586Z,63.83
2018-02-17T12:23:41.981Z,62.93
2018-02-17T12:26:11.259Z,63.17
2018-02-17T12:28:39.659Z,64.00
2018-02-17T12:31:08.010Z,56.47
2018-02-17T12:33:36.406Z,52.53
2018-02-17T12:36:04.795Z,58.83
2018-02-17T12:38:33.125Z,67.97
2018-02-17T12:41:01.542Z,59.97
2018-02-17T12:43:30.485Z,57.53
2018-02-17T12:45:58.905Z,53.43
2018-02-17T12:48:27.234Z,56.57
2018-02-17T12:50:55.682Z,64.53
2018-02-17T12:53:24.036Z,72.80
2018-02-17T12:55:52.358Z,64.10
2018-02-17T12:58:20.686Z,53.13
2018-02-17T13:00:49.069Z,74.07
2018-02-17T13:03:17.453Z,57.30
2018-02-17T13:05:45.814Z,100.17
2018-02-17T13:08:14.209Z,76.80
2018-02-17T13:10:42.562Z,77.13
2018-02-17T13:13:10.887Z,70.03
2018-02-17T13:15:39.238Z,67.97
2018-02-17T13:18:07.674Z,64.43
2018-02-17T13:20:36.088Z,67.67
2018-02-17T13:23:05.086Z,52.35
2018-02-17T13:25:33.463Z,71.07
2018-02-17T13:28:01.790Z,67.40
2018-02-17T13:30:30.214Z,73.90
2018-02-17T13:32:58.596Z,65.20
2018-02-17T13:35:26.946Z,72.37
2018-02-17T13:37:55.347Z,68.73
2018-02-17T13:40:23.697Z,68.13
2018-02-17T13:42:52.546Z,70.85
2018-02-17T13:45:20.894Z,54.10
2018-02-17T13:47:49.227Z,60.80
2018-02-17T13:50:17.646Z,50.40
2018-02-17T13:52:45.974Z,51.93
2018-02-17T13:55:14.330Z,55.70
2018-02-17T13:57:42.670Z,60.20
2018-02-17T14:00:11.052Z,55.00
2018-02-17T14:02:40.291Z,65.90
2018-02-17T14:05:08.722Z,68.37
2018-02-17T14:07:37.073Z,58.87
2018-02-17T14:10:05.482Z,71.17
2018-02-17T14:12:33.815Z,52.90
2018-02-17T14:15:02.175Z,57.20
2018-02-17T14:17:30.503Z,56.75
2018-02-17T14:19:58.851Z,55.30
2018-02-17T14:22:27.194Z,59.20
2018-02-17T14:24:55.550Z,61.50
2018-02-17T14:27:23.886Z,45.50
2018-02-17T14:29:52.299Z,52.70
2018-02-17T14:32:20.726Z,56.97
2018-02-17T14:34:49.034Z,55.73
2018-02-17T14:37:17.425Z,71.18
2018-02-17T14:39:45.806Z,71.03
2018-02-17T14:42:14.183Z,63.03
2018-02-17T14:44:42.518Z,72.40
2018-02-17T14:47:10.871Z,48.08
2018-02-17T14:49:39.194Z,61.67
2018-02-17T14:52:07.546Z,54.40
2018-02-17T14:54:35.894Z,55.90
2018-02-17T14:57:04.290Z,40.57
2018-02-17T14:59:32.831Z,45.13
2018-02-17T15:02:01.214Z,45.27
2018-02-17T15:04:29.537Z,45.67
2018-02-17T15:06:57.886Z,49.20
2018-02-17T15:09:26.214Z,55.90
2018-02-17T15:11:54.743Z,52.47
2018-02-17T15:14:23.093Z,73.37
2018-02-17T15:16:51.719Z,84.45
2018-02-17T15:19:20.063Z,86.63
2018-02-17T15:21:48.477Z,60.40
2018-02-17T15:24:18.133Z,64.90
2018-02-17T15:26:46.643Z,74.63
2018-02-17T15:29:14.963Z,53.00
2018-02-17T15:31:43.310Z,51.03
2018-02-17T15:34:12.646Z,65.43
2018-02-17T15:36:40.994Z,55.30
2018-02-17T15:39:09.322Z,50.10
2018-02-17T15:41:38.358Z,66.32
2018-02-17T15:44:06.686Z,89.63
2018-02-17T15:46:35.080Z,64.63
2018-02-17T15:49:03.423Z,69.22
2018-02-17T15:51:31.864Z,56.63
2018-02-17T15:54:01.114Z,61.30
2018-02-17T15:56:29.458Z,53.23
2018-02-17T15:58:57.806Z,51.23
2018-02-17T16:01:26.150Z,75.00
2018-02-17T16:03:54.490Z,77.05
2018-02-17T16:06:22.842Z,65.03
2018-02-17T16:08:51.202Z,56.80
2018-02-17T16:11:19.549Z,59.37
2018-02-17T16:13:47.878Z,70.67
2018-02-17T16:16:16.224Z,57.50
2018-02-17T16:18:44.545Z,67.10
2018-02-17T16:21:12.911Z,66.77
2018-02-17T16:23:41.265Z,56.80
2018-02-17T16:26:09.617Z,68.77
2018-02-17T16:28:37.946Z,62.92
2018-02-17T16:31:06.310Z,69.30
2018-02-17T16:33:34.651Z,85.23
2018-02-17T16:36:02.986Z,112.05
2018-02-17T16:38:31.343Z,128.77
2018-02-17T16:41:00.629Z,183.50
2018-02-17T16:43:28.982Z,193.77
2018-02-17T16:45:57.320Z,129.33
2018-02-17T16:48:25.674Z,103.00
2018-02-17T16:50:54.011Z,81.37
2018-02-17T16:53:22.358Z,61.83
2018-02-17T16:55:50.688Z,61.13
2018-02-17T16:58:19.033Z,50.33
2018-02-17T17:00:47.542Z,58.38
2018-02-17T17:03:15.885Z,53.63
2018-02-17T17:05:44.218Z,51.23
2018-02-17T17:08:12.570Z,55.28
2018-02-17T17:10:40.899Z,68.82
2018-02-17T17:13:09.247Z,66.17
2018-02-17T17:15:37.573Z,56.92
2018-02-17T17:18:05.925Z,57.90
2018-02-17T17:20:35.173Z,69.97
2018-02-17T17:23:03.518Z,56.93
2018-02-17T17:25:31.857Z,67.47
2018-02-17T17:28:00.202Z,54.77
2018-02-17T17:30:28.533Z,62.53
2018-02-17T17:32:56.882Z,61.95
2018-02-17T17:35:25.230Z,70.50
2018-02-17T17:37:53.590Z,55.93
2018-02-17T17:40:21.918Z,59.90
2018-02-17T17:42:50.272Z,52.90
2018-02-17T17:45:18.602Z,53.67
2018-02-17T17:47:46.954Z,52.75
2018-02-17T17:50:15.592Z,59.87
2018-02-17T17:52:44.733Z,49.83
2018-02-17T17:55:13.081Z,53.95
2018-02-17T17:57:41.462Z,65.33
2018-02-17T18:00:09.886Z,62.33
2018-02-17T18:02:38.234Z,73.03
2018-02-17T18:05:06.643Z,51.10
2018-02-17T18:07:34.998Z,52.83
2018-02-17T18:10:03.326Z,58.35
2018-02-17T18:12:31.675Z,47.33
2018-02-17T18:15:00.003Z,47.73
2018-02-17T18:17:28.354Z,43.50
2018-02-17T18:19:56.682Z,42.77
2018-02-17T18:22:25.034Z,47.67
2018-02-17T18:24:53.357Z,54.43
2018-02-17T18:27:21.714Z,54.60
2018-02-17T18:29:50.043Z,53.87
2018-02-17T18:32:18.410Z,50.80
2018-02-17T18:34:46.730Z,48.03
2018-02-17T18:37:15.062Z,62.47
2018-02-17T18:39:43.898Z,60.55
2018-02-17T18:42:12.222Z,40.30
2018-02-17T18:44:40.578Z,62.70
2018-02-17T18:47:08.910Z,48.97
2018-02-17T18:49:37.302Z,48.67
2018-02-17T18:52:05.702Z,44.80
2018-02-17T18:54:34.062Z,67.67
2018-02-17T18:57:02.466Z,43.40
2018-02-17T18:59:31.110Z,61.27
2018-02-17T19:01:59.523Z,47.40
2018-02-17T19:04:27.878Z,61.28
2018-02-17T19:06:56.206Z,50.13
2018-02-17T19:09:24.555Z,51.87
2018-02-17T19:11:52.882Z,52.37
2018-02-17T19:14:21.878Z,56.03
2018-02-17T19:16:50.213Z,48.20
2018-02-17T19:19:18.673Z,46.80
2018-02-17T19:21:47.002Z,56.33
2018-02-17T19:24:15.432Z,58.80
2018-02-17T19:26:43.763Z,44.88
2018-02-17T19:29:12.183Z,42.83
2018-02-17T19:31:40.521Z,45.70
2018-02-17T19:34:08.875Z,55.93
2018-02-17T19:36:37.211Z,52.47
2018-02-17T19:39:07.027Z,53.87
2018-02-17T19:41:35.406Z,41.30
2018-02-17T19:44:03.784Z,46.47
2018-02-17T19:46:32.119Z,50.07
2018-02-17T19:49:00.478Z,48.07
2018-02-17T19:51:28.829Z,51.83
2018-02-17T19:53:57.292Z,54.57
2018-02-17T19:56:25.623Z,42.80
2018-02-17T19:58:54.050Z,43.20
2018-02-17T20:01:22.383Z,48.37
2018-02-17T20:03:50.801Z,43.47
2018-02-17T20:06:20.116Z,42.30
2018-02-17T20:08:50.128Z,53.17
2018-02-17T20:11:18.782Z,45.70
2018-02-17T20:13:47.171Z,40.03
2018-02-17T20:16:16.430Z,51.97
2018-02-17T20:18:44.899Z,42.07
2018-02-17T20:21:13.215Z,52.33
2018-02-17T20:23:41.610Z,65.83
2018-02-17T20:26:09.930Z,64.67
2018-02-17T20:28:38.399Z,51.15
2018-02-17T20:31:06.750Z,60.10
2018-02-17T20:33:35.136Z,55.00
2018-02-17T20:36:04.361Z,46.85
2018-02-17T20:38:32.722Z,58.70
2018-02-17T20:41:01.058Z,53.20
2018-02-17T20:43:29.431Z,54.30
2018-02-17T20:45:57.872Z,41.22
2018-02-17T20:48:26.355Z,46.47
2018-02-17T20:50:54.770Z,39.50
2018-02-17T20:53:42.312Z,41.77
2018-02-17T20:56:11.560Z,46.57
2018-02-17T20:58:39.931Z,49.50
2018-02-17T21:01:08.508Z,50.35
2018-02-17T21:03:37.866Z,48.13
2018-02-17T21:06:06.279Z,48.33
2018-02-17T21:08:34.662Z,58.23
2018-02-17T21:11:03.006Z,66.50
2018-02-17T21:13:31.414Z,45.97
2018-02-17T21:16:00.847Z,51.95
2018-02-17T21:18:29.327Z,53.00
2018-02-17T21:20:57.750Z,48.17
2018-02-17T21:23:26.142Z,40.47
2018-02-17T21:25:54.494Z,47.60
2018-02-17T21:28:22.827Z,42.60
2018-02-17T21:30:51.184Z,41.80
2018-02-17T21:33:19.546Z,38.87
2018-02-17T21:35:47.915Z,40.83
2018-02-17T21:38:16.242Z,36.47
2018-02-17T21:40:44.604Z,45.73
2018-02-17T21:43:12.983Z,52.53
2018-02-17T21:45:42.498Z,38.85
2018-02-17T21:48:10.865Z,37.60
2018-02-17T21:50:39.203Z,46.57
2018-02-17T21:53:07.538Z,41.50
2018-02-17T21:55:35.887Z,47.10
2018-02-17T21:58:04.247Z,47.13
2018-02-17T22:00:32.598Z,47.73
2018-02-17T22:03:00.932Z,43.63
2018-02-17T22:05:30.014Z,44.60
2018-02-17T22:07:58.340Z,47.77
2018-02-17T22:10:26.738Z,39.43
2018-02-17T22:12:55.879Z,49.37
2018-02-17T22:15:24.230Z,42.23
2018-02-17T22:17:52.571Z,50.83
2018-02-17T22:20:20.934Z,48.10
2018-02-17T22:22:49.265Z,52.73
2018-02-17T22:25:17.746Z,41.77
2018-02-17T22:27:46.078Z,49.80
2018-02-17T22:30:14.488Z,64.57
2018-02-17T22:32:42.806Z,41.00
2018-02-17T22:35:11.149Z,50.80
2018-02-17T22:37:39.633Z,50.17
2018-02-17T22:40:07.974Z,54.40
2018-02-17T22:42:36.306Z,50.60
2018-02-17T22:45:04.658Z,46.27
2018-02-17T22:47:32.990Z,54.10
2018-02-17T22:50:01.344Z,55.20
2018-02-17T22:52:29.668Z,56.13
2018-02-17T22:54:58.016Z,59.50
2018-02-17T22:57:26.378Z,56.60
2018-02-17T22:59:54.734Z,50.47
2018-02-17T23:02:23.058Z,64.33
2018-02-17T23:04:52.286Z,59.38
2018-02-17T23:07:20.619Z,54.97
2018-02-17T23:09:48.953Z,62.70
2018-02-17T23:12:17.314Z,47.25
2018-02-17T23:14:45.735Z,51.27
2018-02-17T23:17:14.090Z,50.40
2018-02-17T23:19:42.439Z,58.95
2018-02-17T23:22:10.776Z,44.20
2018-02-17T23:24:39.140Z,51.35
2018-02-17T23:27:07.467Z,47.50
2018-02-17T23:29:35.790Z,54.10
2018-02-17T23:32:04.134Z,49.35
2018-02-17T23:34:32.463Z,49.05
2018-02-17T23:37:00.810Z,53.65
2018-02-17T23:39:29.135Z,49.70
2018-02-17T23:41:57.477Z,46.80
2018-02-17T23:44:25.802Z,53.45
2018-02-17T23:46:54.146Z,49.58
2018-02-17T23:49:22.475Z,47.17
2018-02-17T23:51:50.877Z,48.42
2018-02-17T23:54:19.258Z,57.20
2018-02-17T23:56:47.635Z,44.45
2018-02-17T23:59:15.961Z,70.62
